Armstrong, Canada
Current Conditions -  °F | °C
As of 3:00 AM on Friday 24 Oct 2014 (Local Time) from CYLW Reporting Station
Clear Clear  
Wind Chill: 36°   Ceiling: Unl
Heat Index: 36°   Visibility: 9mi
Dew Point: 34°   Wind: 0mph
Humidity: 93%   Direction: NA
Pressure: 29.99"   Gusts: NA
Location:  50.45°N, 119.2°W
Report Text: CYLW 241000Z AUTO 00000KT 9SM CLR 02/01 A2999 RMK SLP167
Loading
Personal Weather Stations






























Interactive Weather Map
Tropical Storm Tracking
New forecast layout! Learn more

10-Day Weather Forecast

Advertisements
Track Severe Weather on mobile